Los Pinas, Colorado
Current Conditions -  °F | °C
As of 12:52 PM on Monday 24 Nov 2014 (Local Time) from KALS Reporting Station
Broken Clouds Broken Clouds  
Wind Chill: 26°   Ceiling: 6500
Heat Index: 32°   Visibility: 10mi
Dew Point:   Wind: 6mph
Humidity: 29%   Direction: 350°N
Pressure: 30.02"   Gusts: NA
Location:  37.1816°N, 106.262°W
Report Text: KALS 241952Z AUTO 35005KT 10SM BKN065 00/M16 A3002 RMK AO2 SLP202 T00001161
Loading
Personal Weather Stations






























Interactive Weather Map New forecast layout! Learn more

10-Day Weather Forecast

Advertisements
Track Severe Weather on mobile